Time;durP1;ratioP1;P1;durP2;ratioP2;P2;SDS_P1;SDS_P2;PMS_P1;PMS_P2;Temp;Humidity;BMP_temperature;BMP_pressure;BME280_temperature;BME280_humidity;BME280_pressure;Samples;Min_cycle;Max_cycle;Signal;HPM_P1;HPM_P2
2022/12/04 00:01:37;;;;;;;;;;;;;;;;;;4935078;29;19919;-86
2022/12/04 00:04:03;;;;;;;;;;;;;;;;;;4934979;29;19919;-86
2022/12/04 00:06:28;;;;;;;;;;;;;;;;;;4934781;29;20693;-85
2022/12/04 00:08:54;;;;;;;;;;;;;;;;;;4935066;29;20379;-86
2022/12/04 00:11:20;;;;;;;;;;;;;;;;;;4934920;29;19930;-84
2022/12/04 00:13:46;;;;;;;;;;;;;;;;;;4934873;29;20245;-85
2022/12/04 00:16:13;;;;;;;;;;;;;;;;;;4934779;29;20335;-86
2022/12/04 00:18:39;;;;;;;;;;;;;;;;;;4934691;29;19923;-86
2022/12/04 00:21:06;;;;;;;;;;;;;;;;;;4934818;29;19923;-84
2022/12/04 00:23:32;;;;;;;;;;;;;;;;;;4934595;29;19919;-85
2022/12/04 00:26:01;;;;;;;;;;;;;;;;;;4917734;29;19925;-84
2022/12/04 00:28:26;;;;;;;;;;;;;;;;;;4935279;29;20287;-85
2022/12/04 00:30:52;;;;;;;;;;;;;;;;;;4921608;29;19923;-84
2022/12/04 00:33:17;;;;;;;;;;;;;;;;;;4921150;29;19923;-85
2022/12/04 00:35:43;;;;;;;;;;;;;;;;;;4921501;29;19997;-88
2022/12/04 00:38:08;;;;;;;;;;;;;;;;;;4938611;29;19922;-87
2022/12/04 00:40:34;;;;;;;;;;;;;;;;;;4921050;29;19923;-86
2022/12/04 00:42:59;;;;;;;;;;;;;;;;;;4938630;29;19919;-86
2022/12/04 00:45:24;;;;;;;;;;;;;;;;;;4938452;29;19918;-86
2022/12/04 00:47:50;;;;;;;;;;;;;;;;;;4939102;29;20268;-85
2022/12/04 00:50:15;;;;;;;;;;;;;;;;;;4939040;29;20418;-86
2022/12/04 00:52:41;;;;;;;;;;;;;;;;;;4938406;29;19967;-86
2022/12/04 00:55:06;;;;;;;;;;;;;;;;;;4938676;29;19974;-86
2022/12/04 00:57:32;;;;;;;;;;;;;;;;;;4929187;29;19930;-86
2022/12/04 00:59:57;;;;;;;;;;;;;;;;;;4961136;29;19907;-85
2022/12/04 01:02:22;;;;;;;;;;;;;;;;;;4956947;29;19925;-86
2022/12/04 01:04:48;;;;;;;;;;;;;;;;;;4940281;29;20390;-86
2022/12/04 01:07:13;;;;;;;;;;;;;;;;;;4922927;29;19923;-86
2022/12/04 01:09:39;;;;;;;;;;;;;;;;;;4938656;29;19926;-86
2022/12/04 01:12:04;;;;;;;;;;;;;;;;;;4938195;29;20440;-86
2022/12/04 01:14:30;;;;;;;;;;;;;;;;;;4937894;29;19966;-86
2022/12/04 01:16:55;;;;;;;;;;;;;;;;;;4920846;29;19969;-86
2022/12/04 01:19:21;;;;;;;;;;;;;;;;;;4937493;29;20013;-86
2022/12/04 01:21:46;;;;;;;;;;;;;;;;;;4937893;29;20311;-85
2022/12/04 01:24:12;;;;;;;;;;;;;;;;;;4937826;29;19926;-85
2022/12/04 01:26:37;;;;;;;;;;;;;;;;;;4937450;29;19919;-86
2022/12/04 01:29:03;;;;;;;;;;;;;;;;;;4937752;29;19918;-86
2022/12/04 01:31:28;;;;;;;;;;;;;;;;;;4920266;29;19919;-86
2022/12/04 01:33:54;;;;;;;;;;;;;;;;;;4920409;29;20041;-85
2022/12/04 01:36:20;;;;;;;;;;;;;;;;;;4920432;29;19954;-85
2022/12/04 01:38:46;;;;;;;;;;;;;;;;;;4920251;29;19919;-86
2022/12/04 01:41:12;;;;;;;;;;;;;;;;;;4920306;29;19973;-87
2022/12/04 01:43:38;;;;;;;;;;;;;;;;;;4937149;29;19918;-86
2022/12/04 01:46:04;;;;;;;;;;;;;;;;;;4937359;29;20017;-85
2022/12/04 01:48:35;;;;;;;;;;;;;;;;;;4919897;29;20013;-86
2022/12/04 01:51:05;;;;;;;;;;;;;;;;;;4920174;29;19977;-86
2022/12/04 01:53:32;;;;;;;;;;;;;;;;;;4936945;29;19978;-85
2022/12/04 01:55:58;;;;;;;;;;;;;;;;;;4920060;29;19919;-85
2022/12/04 01:58:26;;;;;;;;;;;;;;;;;;4936907;29;19970;-86
2022/12/04 02:00:53;;;;;;;;;;;;;;;;;;4920038;29;20276;-86
2022/12/04 02:03:19;;;;;;;;;;;;;;;;;;4919693;29;19970;-86
2022/12/04 02:05:44;;;;;;;;;;;;;;;;;;4936965;29;19919;-86
2022/12/04 02:08:10;;;;;;;;;;;;;;;;;;4919913;29;20367;-86
2022/12/04 02:10:49;;;;;;;;;;;;;;;;;;4919678;29;19965;-86
2022/12/04 02:13:19;;;;;;;;;;;;;;;;;;4936594;29;19922;-86
2022/12/04 02:15:53;;;;;;;;;;;;;;;;;;4919827;29;19926;-87
2022/12/04 02:18:29;;;;;;;;;;;;;;;;;;4918566;29;20281;-86
2022/12/04 02:20:57;;;;;;;;;;;;;;;;;;4919379;29;19922;-86
2022/12/04 02:23:35;;;;;;;;;;;;;;;;;;4936738;29;20385;-86
2022/12/04 02:26:19;;;;;;;;;;;;;;;;;;4936385;29;19919;-86
2022/12/04 02:28:54;;;;;;;;;;;;;;;;;;4919272;29;19922;-86
2022/12/04 02:31:58;;;;;;;;;;;;;;;;;;4919259;29;20018;-86
2022/12/04 02:34:28;;;;;;;;;;;;;;;;;;4877708;29;19931;-87
2022/12/04 02:37:15;;;;;;;;;;;;;;;;;;4861976;29;19924;-86
2022/12/04 02:39:51;;;;;;;;;;;;;;;;;;4862051;29;19970;-86
2022/12/04 02:42:36;;;;;;;;;;;;;;;;;;4877780;29;19973;-86
2022/12/04 02:45:04;;;;;;;;;;;;;;;;;;4871036;29;19920;-87
2022/12/04 02:47:31;;;;;;;;;;;;;;;;;;4877583;29;19982;-86
2022/12/04 02:50:00;;;;;;;;;;;;;;;;;;4877561;29;19942;-86
2022/12/04 02:52:38;;;;;;;;;;;;;;;;;;4892260;29;19956;-86
2022/12/04 02:55:29;;;;;;;;;;;;;;;;;;4877356;29;19920;-86
2022/12/04 02:57:57;;;;;;;;;;;;;;;;;;4875337;29;20015;-87
2022/12/04 03:00:23;;;;;;;;;;;;;;;;;;4892982;29;20039;-85
2022/12/04 03:02:54;;;;;;;;;;;;;;;;;;4861557;29;20408;-86
2022/12/04 03:05:23;;;;;;;;;;;;;;;;;;4894738;29;19923;-85
2022/12/04 03:07:51;;;;;;;;;;;;;;;;;;4935927;29;19925;-86
2022/12/04 03:10:26;;;;;;;;;;;;;;;;;;4918601;29;19926;-87
2022/12/04 03:13:02;;;;;;;;;;;;;;;;;;4935866;29;20017;-86
2022/12/04 03:15:33;;;;;;;;;;;;;;;;;;4935677;29;19954;-85
2022/12/04 03:17:58;;;;;;;;;;;;;;;;;;4935391;29;19945;-86
2022/12/04 03:20:24;;;;;;;;;;;;;;;;;;4918368;29;19927;-86
2022/12/04 03:22:53;;;;;;;;;;;;;;;;;;4918676;29;20025;-86
2022/12/04 03:25:18;;;;;;;;;;;;;;;;;;4918205;29;19918;-86
2022/12/04 03:27:44;;;;;;;;;;;;;;;;;;4935739;29;19923;-85
2022/12/04 03:30:11;;;;;;;;;;;;;;;;;;4935218;29;19914;-85
2022/12/04 03:32:36;;;;;;;;;;;;;;;;;;4918431;29;19926;-86
2022/12/04 03:35:06;;;;;;;;;;;;;;;;;;4918407;29;20322;-87
2022/12/04 03:37:40;;;;;;;;;;;;;;;;;;4935243;29;20434;-85
2022/12/04 03:40:18;;;;;;;;;;;;;;;;;;4917989;29;20350;-86
2022/12/04 03:42:50;;;;;;;;;;;;;;;;;;4935317;29;19923;-88
2022/12/04 03:45:22;;;;;;;;;;;;;;;;;;4935135;29;19926;-86
2022/12/04 03:47:54;;;;;;;;;;;;;;;;;;4935055;29;19919;-86
2022/12/04 03:50:31;;;;;;;;;;;;;;;;;;4935110;29;19930;-85
2022/12/04 03:53:15;;;;;;;;;;;;;;;;;;4935132;29;19982;-86
2022/12/04 03:55:44;;;;;;;;;;;;;;;;;;4935189;29;19941;-85
2022/12/04 03:58:12;;;;;;;;;;;;;;;;;;4934958;29;19923;-85
2022/12/04 04:00:40;;;;;;;;;;;;;;;;;;4935156;29;19926;-86
2022/12/04 04:03:08;;;;;;;;;;;;;;;;;;4916660;29;20017;-86
2022/12/04 04:05:35;;;;;;;;;;;;;;;;;;4917816;29;20066;-87
2022/12/04 04:10:51;;;;;;;;;;;;;;;;;;4934826;29;19969;-87
2022/12/04 04:24:31;;;;;;;;;;;;;;;;;;4935072;29;19922;-86
2022/12/04 04:26:57;;;;;;;;;;;;;;;;;;4934693;29;19929;-85
2022/12/04 04:29:23;;;;;;;;;;;;;;;;;;4934627;29;19918;-86
2022/12/04 04:32:02;;;;;;;;;;;;;;;;;;4934670;29;19941;-85
2022/12/04 04:34:36;;;;;;;;;;;;;;;;;;4934560;29;19926;-87
2022/12/04 04:37:05;;;;;;;;;;;;;;;;;;4917479;29;19923;-86
2022/12/04 04:39:35;;;;;;;;;;;;;;;;;;4917466;29;19919;-86
2022/12/04 04:42:21;;;;;;;;;;;;;;;;;;4934605;29;19940;-86
2022/12/04 04:44:53;;;;;;;;;;;;;;;;;;4948823;29;20018;-87
2022/12/04 04:47:27;;;;;;;;;;;;;;;;;;4917536;29;20021;-86
2022/12/04 04:49:53;;;;;;;;;;;;;;;;;;4934521;29;19996;-85
2022/12/04 04:52:20;;;;;;;;;;;;;;;;;;4917397;29;19919;-86
2022/12/04 04:54:46;;;;;;;;;;;;;;;;;;4934320;29;19974;-86
2022/12/04 04:57:11;;;;;;;;;;;;;;;;;;4934823;29;19919;-85
2022/12/04 04:59:36;;;;;;;;;;;;;;;;;;4934327;29;19957;-85
2022/12/04 05:02:02;;;;;;;;;;;;;;;;;;4917355;29;19919;-86
2022/12/04 05:04:28;;;;;;;;;;;;;;;;;;4918093;29;20037;-85
2022/12/04 05:06:53;;;;;;;;;;;;;;;;;;4917783;29;19918;-86
2022/12/04 05:09:18;;;;;;;;;;;;;;;;;;4935167;29;19918;-87
2022/12/04 05:11:44;;;;;;;;;;;;;;;;;;4934391;29;20404;-86
2022/12/04 05:14:09;;;;;;;;;;;;;;;;;;4935162;29;19923;-87
2022/12/04 05:16:35;;;;;;;;;;;;;;;;;;4933960;29;19978;-87
2022/12/04 05:21:45;;;;;;;;;;;;;;;;;;4950135;29;20061;-86
2022/12/04 05:24:10;;;;;;;;;;;;;;;;;;4939957;29;19978;-86
2022/12/04 05:26:35;;;;;;;;;;;;;;;;;;4938986;29;19919;-86
2022/12/04 05:29:01;;;;;;;;;;;;;;;;;;4938118;29;20259;-86
2022/12/04 05:31:26;;;;;;;;;;;;;;;;;;4920648;29;19919;-87
2022/12/04 05:33:52;;;;;;;;;;;;;;;;;;4937643;29;19919;-86
2022/12/04 05:36:17;;;;;;;;;;;;;;;;;;4920522;29;20359;-86
2022/12/04 05:38:42;;;;;;;;;;;;;;;;;;4937425;29;20005;-86
2022/12/04 05:41:08;;;;;;;;;;;;;;;;;;4937487;29;20335;-86
2022/12/04 05:43:34;;;;;;;;;;;;;;;;;;4937245;29;20383;-88
2022/12/04 05:46:09;;;;;;;;;;;;;;;;;;4920512;29;19921;-86
2022/12/04 05:48:34;;;;;;;;;;;;;;;;;;4937128;29;19978;-87
2022/12/04 05:51:03;;;;;;;;;;;;;;;;;;4937278;29;19919;-87
2022/12/04 05:53:29;;;;;;;;;;;;;;;;;;4937049;29;20263;-86
2022/12/04 05:55:59;;;;;;;;;;;;;;;;;;4920055;29;19930;-88
2022/12/04 05:58:24;;;;;;;;;;;;;;;;;;4919920;29;19955;-86
2022/12/04 06:00:50;;;;;;;;;;;;;;;;;;4937077;29;19919;-86
2022/12/04 06:03:15;;;;;;;;;;;;;;;;;;4937094;29;20311;-87
2022/12/04 06:05:41;;;;;;;;;;;;;;;;;;4936933;29;19961;-87
2022/12/04 06:08:06;;;;;;;;;;;;;;;;;;4919862;29;20393;-86
2022/12/04 06:10:32;;;;;;;;;;;;;;;;;;4936685;29;19918;-86
2022/12/04 06:12:58;;;;;;;;;;;;;;;;;;4936766;29;19919;-85
2022/12/04 06:15:23;;;;;;;;;;;;;;;;;;4919737;29;19923;-87
2022/12/04 06:17:49;;;;;;;;;;;;;;;;;;4936528;29;19927;-87
2022/12/04 06:20:14;;;;;;;;;;;;;;;;;;4936898;29;19927;-87
2022/12/04 06:22:40;;;;;;;;;;;;;;;;;;4936661;29;19926;-86
2022/12/04 06:25:05;;;;;;;;;;;;;;;;;;4936665;29;19914;-87
2022/12/04 06:27:31;;;;;;;;;;;;;;;;;;4935575;29;19918;-86
2022/12/04 06:29:56;;;;;;;;;;;;;;;;;;4936442;29;19919;-87
2022/12/04 06:32:22;;;;;;;;;;;;;;;;;;4936642;29;19918;-85
2022/12/04 06:34:51;;;;;;;;;;;;;;;;;;4919098;29;19926;-87
2022/12/04 06:37:17;;;;;;;;;;;;;;;;;;4936402;29;19966;-85
2022/12/04 06:39:42;;;;;;;;;;;;;;;;;;4919239;29;19958;-85
2022/12/04 06:42:08;;;;;;;;;;;;;;;;;;4936326;29;19923;-85
2022/12/04 06:44:33;;;;;;;;;;;;;;;;;;4919037;29;19926;-86
2022/12/04 06:46:58;;;;;;;;;;;;;;;;;;4919245;29;19928;-86
2022/12/04 06:49:25;;;;;;;;;;;;;;;;;;4936194;29;20379;-86
2022/12/04 06:51:50;;;;;;;;;;;;;;;;;;4936121;29;19939;-87
2022/12/04 06:54:15;;;;;;;;;;;;;;;;;;4936137;29;19923;-87
2022/12/04 06:56:41;;;;;;;;;;;;;;;;;;4935849;29;20331;-86
2022/12/04 06:59:06;;;;;;;;;;;;;;;;;;4919182;29;19923;-86
2022/12/04 07:01:33;;;;;;;;;;;;;;;;;;4912725;29;19990;-87
2022/12/04 07:03:59;;;;;;;;;;;;;;;;;;4914211;29;19922;-86
2022/12/04 07:06:32;;;;;;;;;;;;;;;;;;4916046;29;20034;-87
2022/12/04 07:09:01;;;;;;;;;;;;;;;;;;4922803;29;20005;-86
2022/12/04 07:11:26;;;;;;;;;;;;;;;;;;4951852;29;19928;-85
2022/12/04 07:13:53;;;;;;;;;;;;;;;;;;4934376;29;20301;-85
2022/12/04 07:16:19;;;;;;;;;;;;;;;;;;4952156;29;19970;-86
2022/12/04 07:18:45;;;;;;;;;;;;;;;;;;4951704;28;20480;-85
2022/12/04 07:21:15;;;;;;;;;;;;;;;;;;4932994;29;19966;-84
2022/12/04 07:23:40;;;;;;;;;;;;;;;;;;4932837;29;19923;-85
2022/12/04 07:26:07;;;;;;;;;;;;;;;;;;4932571;29;20309;-86
2022/12/04 07:28:33;;;;;;;;;;;;;;;;;;4932281;29;20053;-86
2022/12/04 07:31:01;;;;;;;;;;;;;;;;;;4914926;29;20394;-86
2022/12/04 07:33:27;;;;;;;;;;;;;;;;;;4932353;29;20355;-86
2022/12/04 07:35:56;;;;;;;;;;;;;;;;;;4932343;29;20024;-86
2022/12/04 07:38:22;;;;;;;;;;;;;;;;;;4914978;29;19923;-87
2022/12/04 07:40:47;;;;;;;;;;;;;;;;;;4915248;29;19922;-86
2022/12/04 07:43:12;;;;;;;;;;;;;;;;;;4932324;29;19922;-87
2022/12/04 07:45:38;;;;;;;;;;;;;;;;;;4932107;29;19931;-86
2022/12/04 07:48:03;;;;;;;;;;;;;;;;;;4914974;29;19923;-86
2022/12/04 07:50:29;;;;;;;;;;;;;;;;;;4931785;29;19935;-86
2022/12/04 07:52:54;;;;;;;;;;;;;;;;;;4932303;29;20298;-87
2022/12/04 07:55:20;;;;;;;;;;;;;;;;;;4932164;29;20418;-87
2022/12/04 07:57:45;;;;;;;;;;;;;;;;;;4951114;29;19923;-86
2022/12/04 08:00:11;;;;;;;;;;;;;;;;;;4951335;29;19953;-87
2022/12/04 08:02:36;;;;;;;;;;;;;;;;;;4933537;29;19928;-87
2022/12/04 08:05:02;;;;;;;;;;;;;;;;;;4951273;29;19922;-86
2022/12/04 08:07:27;;;;;;;;;;;;;;;;;;4951178;29;19923;-86
2022/12/04 08:09:52;;;;;;;;;;;;;;;;;;4951163;29;20013;-87
2022/12/04 08:12:18;;;;;;;;;;;;;;;;;;4934759;29;20053;-86
2022/12/04 08:14:43;;;;;;;;;;;;;;;;;;4914295;29;19930;-86
2022/12/04 08:17:09;;;;;;;;;;;;;;;;;;4918178;29;19996;-87
2022/12/04 08:19:34;;;;;;;;;;;;;;;;;;4913599;29;19934;-87
2022/12/04 08:22:00;;;;;;;;;;;;;;;;;;4914335;29;20021;-88
2022/12/04 08:24:25;;;;;;;;;;;;;;;;;;4931745;29;20013;-86
2022/12/04 08:26:51;;;;;;;;;;;;;;;;;;4931909;29;19930;-87
2022/12/04 08:29:16;;;;;;;;;;;;;;;;;;4914833;29;19966;-86
2022/12/04 08:31:41;;;;;;;;;;;;;;;;;;4931521;29;20041;-87
2022/12/04 08:34:07;;;;;;;;;;;;;;;;;;4931843;29;19922;-87
2022/12/04 08:36:33;;;;;;;;;;;;;;;;;;4914426;29;19969;-86
2022/12/04 08:38:58;;;;;;;;;;;;;;;;;;4931905;29;19922;-86
2022/12/04 08:41:25;;;;;;;;;;;;;;;;;;4931904;29;19919;-87
2022/12/04 08:43:53;;;;;;;;;;;;;;;;;;4931666;29;20690;-85
2022/12/04 08:46:18;;;;;;;;;;;;;;;;;;4914424;29;20352;-86
2022/12/04 08:48:44;;;;;;;;;;;;;;;;;;4914369;29;19969;-86
2022/12/04 08:51:14;;;;;;;;;;;;;;;;;;4935179;29;19929;-85
2022/12/04 08:53:40;;;;;;;;;;;;;;;;;;4935256;29;19922;-87
2022/12/04 08:56:05;;;;;;;;;;;;;;;;;;4935395;29;19927;-86
2022/12/04 08:58:31;;;;;;;;;;;;;;;;;;4935190;29;19927;-86
2022/12/04 09:01:02;;;;;;;;;;;;;;;;;;4935183;29;19922;-87
2022/12/04 09:03:27;;;;;;;;;;;;;;;;;;4917650;29;19923;-86
2022/12/04 09:05:57;;;;;;;;;;;;;;;;;;4935123;29;19930;-87
2022/12/04 09:08:22;;;;;;;;;;;;;;;;;;4935247;29;20013;-86
2022/12/04 09:10:48;;;;;;;;;;;;;;;;;;4918245;29;20014;-87
2022/12/04 09:13:13;;;;;;;;;;;;;;;;;;4917816;29;20386;-87
2022/12/04 09:15:39;;;;;;;;;;;;;;;;;;4935155;29;19930;-87
2022/12/04 09:18:05;;;;;;;;;;;;;;;;;;4934976;29;20155;-87
2022/12/04 09:20:31;;;;;;;;;;;;;;;;;;4936620;29;19929;-87
2022/12/04 09:22:56;;;;;;;;;;;;;;;;;;4921043;29;19915;-87
2022/12/04 09:25:22;;;;;;;;;;;;;;;;;;4938489;29;19919;-87
2022/12/04 09:27:47;;;;;;;;;;;;;;;;;;4936889;29;20013;-88
2022/12/04 09:30:13;;;;;;;;;;;;;;;;;;4935836;29;20734;-87
2022/12/04 09:32:38;;;;;;;;;;;;;;;;;;4935895;29;19990;-87
2022/12/04 09:35:04;;;;;;;;;;;;;;;;;;4960033;29;19911;-88
2022/12/04 09:37:31;;;;;;;;;;;;;;;;;;4943667;29;19974;-86
2022/12/04 09:39:56;;;;;;;;;;;;;;;;;;4940707;29;20328;-87
2022/12/04 09:42:31;;;;;;;;;;;;;;;;;;4937691;29;19923;-85
2022/12/04 09:45:02;;;;;;;;;;;;;;;;;;4935030;29;19923;-86
2022/12/04 09:47:37;;;;;;;;;;;;;;;;;;4917123;29;19930;-86
2022/12/04 09:50:22;;;;;;;;;;;;;;;;;;4917314;29;20017;-86
2022/12/04 09:52:57;;;;;;;;;;;;;;;;;;4935411;29;20006;-86
2022/12/04 09:55:31;;;;;;;;;;;;;;;;;;4934500;29;19974;-86
2022/12/04 09:58:00;;;;;;;;;;;;;;;;;;4934403;29;19970;-86
2022/12/04 10:00:27;;;;;;;;;;;;;;;;;;4917115;29;20275;-86
2022/12/04 10:03:02;;;;;;;;;;;;;;;;;;4934183;29;20096;-86
2022/12/04 10:05:43;;;;;;;;;;;;;;;;;;4934020;29;19929;-86
2022/12/04 10:08:18;;;;;;;;;;;;;;;;;;4916977;29;19929;-85
2022/12/04 10:10:53;;;;;;;;;;;;;;;;;;4934087;29;19929;-87
2022/12/04 10:13:24;;;;;;;;;;;;;;;;;;4933677;29;19929;-89
2022/12/04 10:15:53;;;;;;;;;;;;;;;;;;4916756;29;19922;-86
2022/12/04 10:18:37;;;;;;;;;;;;;;;;;;4933711;29;19935;-88
2022/12/04 10:21:10;;;;;;;;;;;;;;;;;;4933517;29;19969;-87
2022/12/04 10:23:41;;;;;;;;;;;;;;;;;;4933770;29;19946;-86
2022/12/04 10:26:11;;;;;;;;;;;;;;;;;;4933853;29;19945;-87
2022/12/04 10:28:38;;;;;;;;;;;;;;;;;;4933419;29;19930;-87
2022/12/04 10:31:05;;;;;;;;;;;;;;;;;;4933623;29;20371;-87
2022/12/04 10:33:56;;;;;;;;;;;;;;;;;;4933331;29;19922;-88
2022/12/04 10:36:28;;;;;;;;;;;;;;;;;;4901111;29;19923;-87
2022/12/04 10:39:01;;;;;;;;;;;;;;;;;;4916497;29;20427;-88
2022/12/04 10:41:32;;;;;;;;;;;;;;;;;;4933546;29;20378;-86
2022/12/04 10:43:59;;;;;;;;;;;;;;;;;;4916233;29;19977;-88
2022/12/04 10:46:26;;;;;;;;;;;;;;;;;;4933212;29;19919;-87
2022/12/04 10:48:54;;;;;;;;;;;;;;;;;;4933493;29;20282;-88
2022/12/04 10:51:21;;;;;;;;;;;;;;;;;;4933091;29;19930;-88
2022/12/04 10:53:48;;;;;;;;;;;;;;;;;;4933090;29;19922;-88
2022/12/04 10:56:21;;;;;;;;;;;;;;;;;;4933131;29;19950;-88
2022/12/04 10:58:58;;;;;;;;;;;;;;;;;;4932949;29;19923;-90
2022/12/04 11:01:24;;;;;;;;;;;;;;;;;;4933175;29;19923;-87
2022/12/04 11:04:01;;;;;;;;;;;;;;;;;;4915608;29;19923;-88
2022/12/04 11:06:27;;;;;;;;;;;;;;;;;;4932845;29;19922;-86
2022/12/04 11:08:53;;;;;;;;;;;;;;;;;;4915681;29;19970;-86
2022/12/04 11:11:45;;;;;;;;;;;;;;;;;;4932974;29;19926;-87
2022/12/04 11:14:18;;;;;;;;;;;;;;;;;;4911230;29;19922;-86
2022/12/04 11:16:47;;;;;;;;;;;;;;;;;;4932681;29;20363;-88
2022/12/04 11:19:18;;;;;;;;;;;;;;;;;;4924495;29;20437;-87
2022/12/04 11:21:44;;;;;;;;;;;;;;;;;;4932533;29;19923;-87
2022/12/04 11:24:18;;;;;;;;;;;;;;;;;;4932573;29;19923;-87
2022/12/04 11:26:46;;;;;;;;;;;;;;;;;;4915339;29;19945;-89
2022/12/04 11:29:14;;;;;;;;;;;;;;;;;;4932311;29;20029;-90
2022/12/04 11:31:39;;;;;;;;;;;;;;;;;;4915420;29;20309;-89
2022/12/04 11:34:09;;;;;;;;;;;;;;;;;;4932095;29;19927;-87
2022/12/04 11:36:35;;;;;;;;;;;;;;;;;;4932553;29;19939;-87
2022/12/04 11:39:14;;;;;;;;;;;;;;;;;;4932044;29;19926;-87
2022/12/04 11:41:39;;;;;;;;;;;;;;;;;;4915459;29;20009;-87
2022/12/04 11:44:06;;;;;;;;;;;;;;;;;;4932477;29;20009;-86
2022/12/04 11:46:32;;;;;;;;;;;;;;;;;;4932303;29;20033;-87
2022/12/04 11:48:58;;;;;;;;;;;;;;;;;;4932079;29;20328;-90
2022/12/04 11:51:36;;;;;;;;;;;;;;;;;;4932043;29;19926;-88
2022/12/04 11:54:16;;;;;;;;;;;;;;;;;;4932208;29;20310;-87
2022/12/04 11:56:44;;;;;;;;;;;;;;;;;;4914971;29;19922;-90
2022/12/04 11:59:30;;;;;;;;;;;;;;;;;;4931943;29;19923;-86
2022/12/04 12:01:55;;;;;;;;;;;;;;;;;;4931561;29;19927;-87
2022/12/04 12:04:23;;;;;;;;;;;;;;;;;;4931805;29;19994;-86
2022/12/04 12:07:15;;;;;;;;;;;;;;;;;;4931929;29;19923;-87
2022/12/04 12:09:59;;;;;;;;;;;;;;;;;;4916566;29;20002;-87
2022/12/04 12:12:43;;;;;;;;;;;;;;;;;;4931978;29;19931;-87
2022/12/04 12:15:21;;;;;;;;;;;;;;;;;;4931551;29;20001;-85
2022/12/04 12:17:52;;;;;;;;;;;;;;;;;;4931810;29;19974;-88
2022/12/04 12:20:39;;;;;;;;;;;;;;;;;;4931954;29;19923;-88
2022/12/04 12:23:37;;;;;;;;;;;;;;;;;;4931797;29;19946;-87
2022/12/04 12:26:02;;;;;;;;;;;;;;;;;;4902855;29;19965;-88
2022/12/04 12:28:28;;;;;;;;;;;;;;;;;;4935777;29;19966;-86
2022/12/04 12:31:11;;;;;;;;;;;;;;;;;;4935896;29;20001;-87
2022/12/04 12:34:06;;;;;;;;;;;;;;;;;;4918477;29;19974;-87
2022/12/04 12:36:35;;;;;;;;;;;;;;;;;;4922855;29;19965;-88
2022/12/04 12:39:10;;;;;;;;;;;;;;;;;;4935981;29;20637;-87
2022/12/04 12:41:38;;;;;;;;;;;;;;;;;;4920192;29;19942;-88
2022/12/04 12:44:33;;;;;;;;;;;;;;;;;;4938576;29;19927;-90
2022/12/04 12:47:24;;;;;;;;;;;;;;;;;;4876446;29;19946;-87
2022/12/04 12:50:02;;;;;;;;;;;;;;;;;;4875261;29;19924;-87
2022/12/04 12:52:30;;;;;;;;;;;;;;;;;;4876323;29;19920;-87
2022/12/04 12:55:01;;;;;;;;;;;;;;;;;;4876301;29;19924;-87
2022/12/04 12:57:35;;;;;;;;;;;;;;;;;;4875982;29;19923;-87
2022/12/04 13:00:05;;;;;;;;;;;;;;;;;;4876200;29;19923;-87
2022/12/04 13:02:31;;;;;;;;;;;;;;;;;;4875892;29;19924;-88
2022/12/04 13:04:59;;;;;;;;;;;;;;;;;;4889363;29;19975;-87
2022/12/04 13:07:27;;;;;;;;;;;;;;;;;;4894937;29;19923;-87
2022/12/04 13:10:03;;;;;;;;;;;;;;;;;;4879030;29;19924;-88
2022/12/04 13:12:33;;;;;;;;;;;;;;;;;;4894714;29;19948;-87
2022/12/04 13:14:59;;;;;;;;;;;;;;;;;;4878619;29;20342;-88
2022/12/04 13:17:32;;;;;;;;;;;;;;;;;;4894444;29;19924;-87
2022/12/04 13:19:58;;;;;;;;;;;;;;;;;;4878688;29;19927;-87
2022/12/04 13:22:32;;;;;;;;;;;;;;;;;;4899946;29;19923;-87
2022/12/04 13:25:14;;;;;;;;;;;;;;;;;;4954916;29;19918;-86
2022/12/04 13:27:45;;;;;;;;;;;;;;;;;;4957019;29;19974;-86
2022/12/04 13:30:14;;;;;;;;;;;;;;;;;;4957339;29;19940;-86
2022/12/04 13:32:58;;;;;;;;;;;;;;;;;;4955824;29;19923;-87
2022/12/04 13:35:42;;;;;;;;;;;;;;;;;;4955629;28;19923;-86
2022/12/04 13:38:27;;;;;;;;;;;;;;;;;;4959690;29;19922;-86
2022/12/04 13:40:54;;;;;;;;;;;;;;;;;;4948073;28;19927;-86
2022/12/04 13:43:43;;;;;;;;;;;;;;;;;;4934702;29;19927;-87
2022/12/04 13:46:27;;;;;;;;;;;;;;;;;;4935289;29;19927;-87
2022/12/04 13:48:52;;;;;;;;;;;;;;;;;;4917639;29;20006;-87
2022/12/04 13:51:33;;;;;;;;;;;;;;;;;;4934374;29;20041;-86
2022/12/04 13:54:00;;;;;;;;;;;;;;;;;;4934565;29;20379;-86
2022/12/04 13:56:27;;;;;;;;;;;;;;;;;;4934543;29;19922;-86
2022/12/04 13:59:18;;;;;;;;;;;;;;;;;;4934351;29;19922;-86
2022/12/04 14:01:45;;;;;;;;;;;;;;;;;;4916859;29;20727;-86
2022/12/04 14:04:30;;;;;;;;;;;;;;;;;;4916773;29;20427;-86
2022/12/04 14:06:58;;;;;;;;;;;;;;;;;;4934009;29;20511;-87
2022/12/04 14:09:32;;;;;;;;;;;;;;;;;;4933805;29;20009;-86
2022/12/04 14:12:01;;;;;;;;;;;;;;;;;;4934112;29;19939;-87
2022/12/04 14:14:28;;;;;;;;;;;;;;;;;;4933620;29;19923;-86
2022/12/04 14:16:55;;;;;;;;;;;;;;;;;;4933744;29;19922;-86
2022/12/04 14:19:32;;;;;;;;;;;;;;;;;;4933515;29;19959;-85
2022/12/04 14:21:58;;;;;;;;;;;;;;;;;;4933778;29;19927;-86
2022/12/04 14:24:29;;;;;;;;;;;;;;;;;;4933759;29;20473;-87
2022/12/04 14:26:55;;;;;;;;;;;;;;;;;;4916566;29;20124;-86
2022/12/04 14:29:34;;;;;;;;;;;;;;;;;;4933496;29;20522;-86
2022/12/04 14:32:05;;;;;;;;;;;;;;;;;;4933292;29;20393;-86
2022/12/04 14:34:32;;;;;;;;;;;;;;;;;;4933373;29;20367;-86
2022/12/04 14:36:58;;;;;;;;;;;;;;;;;;4933068;29;19927;-87
2022/12/04 14:39:26;;;;;;;;;;;;;;;;;;4933570;29;20434;-85
2022/12/04 14:41:53;;;;;;;;;;;;;;;;;;4933369;29;19934;-86
2022/12/04 14:44:37;;;;;;;;;;;;;;;;;;4916063;29;20446;-86
2022/12/04 14:47:14;;;;;;;;;;;;;;;;;;4915262;29;20434;-86
2022/12/04 14:49:47;;;;;;;;;;;;;;;;;;4916055;29;20326;-86
2022/12/04 14:52:28;;;;;;;;;;;;;;;;;;4932983;29;19923;-86
2022/12/04 14:55:06;;;;;;;;;;;;;;;;;;4933233;29;20374;-87
2022/12/04 14:57:31;;;;;;;;;;;;;;;;;;4915789;29;19970;-85
2022/12/04 14:59:57;;;;;;;;;;;;;;;;;;4932769;29;19927;-85
2022/12/04 15:02:39;;;;;;;;;;;;;;;;;;4915875;29;19943;-86
2022/12/04 15:05:15;;;;;;;;;;;;;;;;;;4932864;29;20002;-86
2022/12/04 15:07:48;;;;;;;;;;;;;;;;;;4932889;29;20413;-86
2022/12/04 15:13:02;;;;;;;;;;;;;;;;;;4932938;29;19930;-87
2022/12/04 15:15:28;;;;;;;;;;;;;;;;;;4932634;29;19922;-87
2022/12/04 15:18:23;;;;;;;;;;;;;;;;;;4932632;29;19969;-87
2022/12/04 15:20:48;;;;;;;;;;;;;;;;;;4915876;29;20396;-87
2022/12/04 15:23:34;;;;;;;;;;;;;;;;;;4932612;29;20003;-86
2022/12/04 15:26:01;;;;;;;;;;;;;;;;;;4932574;29;19922;-87
2022/12/04 15:28:44;;;;;;;;;;;;;;;;;;4932422;29;19974;-86
2022/12/04 15:31:45;;;;;;;;;;;;;;;;;;4932361;29;19919;-87
2022/12/04 15:34:15;;;;;;;;;;;;;;;;;;4891506;29;19922;-86
2022/12/04 15:36:49;;;;;;;;;;;;;;;;;;4931701;29;20251;-85
2022/12/04 15:39:17;;;;;;;;;;;;;;;;;;4915371;29;19927;-84
2022/12/04 15:41:43;;;;;;;;;;;;;;;;;;4932192;29;19919;-87
2022/12/04 15:44:21;;;;;;;;;;;;;;;;;;4932309;29;20658;-85
2022/12/04 15:46:47;;;;;;;;;;;;;;;;;;4914843;29;19930;-86
2022/12/04 15:49:12;;;;;;;;;;;;;;;;;;4932592;29;19919;-88
2022/12/04 15:51:37;;;;;;;;;;;;;;;;;;4932038;29;19927;-86
2022/12/04 15:54:03;;;;;;;;;;;;;;;;;;4932486;29;19929;-86
2022/12/04 15:56:29;;;;;;;;;;;;;;;;;;4931759;29;19923;-86
2022/12/04 15:58:54;;;;;;;;;;;;;;;;;;4932049;29;20302;-88
2022/12/04 16:01:20;;;;;;;;;;;;;;;;;;4932096;29;20405;-87
2022/12/04 16:03:46;;;;;;;;;;;;;;;;;;4914684;29;19922;-87
2022/12/04 16:06:16;;;;;;;;;;;;;;;;;;4914929;29;19929;-87
2022/12/04 16:08:43;;;;;;;;;;;;;;;;;;4931755;29;19922;-88
2022/12/04 16:11:17;;;;;;;;;;;;;;;;;;4932231;29;19922;-87
2022/12/04 16:13:43;;;;;;;;;;;;;;;;;;4931948;29;19977;-87
2022/12/04 16:16:14;;;;;;;;;;;;;;;;;;4931816;29;19923;-86
2022/12/04 16:18:39;;;;;;;;;;;;;;;;;;4931793;29;20000;-86
2022/12/04 16:21:06;;;;;;;;;;;;;;;;;;4914714;29;19938;-86
2022/12/04 16:23:31;;;;;;;;;;;;;;;;;;4931957;29;19970;-86
2022/12/04 16:25:57;;;;;;;;;;;;;;;;;;4931875;29;19918;-87
2022/12/04 16:28:22;;;;;;;;;;;;;;;;;;4914570;29;19927;-87
2022/12/04 16:30:49;;;;;;;;;;;;;;;;;;4931910;29;19961;-86
2022/12/04 16:33:15;;;;;;;;;;;;;;;;;;4931611;29;19923;-86
2022/12/04 16:35:40;;;;;;;;;;;;;;;;;;4914454;29;19923;-87
2022/12/04 16:38:07;;;;;;;;;;;;;;;;;;4914909;29;20019;-87
2022/12/04 16:40:33;;;;;;;;;;;;;;;;;;4943635;29;19929;-87
2022/12/04 16:42:58;;;;;;;;;;;;;;;;;;4951036;29;19918;-87
2022/12/04 16:45:26;;;;;;;;;;;;;;;;;;4950658;29;20294;-87
2022/12/04 16:47:51;;;;;;;;;;;;;;;;;;4933475;29;19922;-86
2022/12/04 16:50:17;;;;;;;;;;;;;;;;;;4933120;29;19925;-88
2022/12/04 16:52:42;;;;;;;;;;;;;;;;;;4950360;29;20421;-87
2022/12/04 16:55:29;;;;;;;;;;;;;;;;;;4950835;29;19922;-86
2022/12/04 16:57:55;;;;;;;;;;;;;;;;;;4912672;29;20398;-87
2022/12/04 17:00:20;;;;;;;;;;;;;;;;;;4912448;29;19927;-88
2022/12/04 17:02:46;;;;;;;;;;;;;;;;;;4912551;29;19928;-87
2022/12/04 17:05:22;;;;;;;;;;;;;;;;;;4912360;29;19923;-88
2022/12/04 17:07:47;;;;;;;;;;;;;;;;;;4914668;29;20391;-87
2022/12/04 17:10:13;;;;;;;;;;;;;;;;;;4931834;29;19923;-88
2022/12/04 17:12:39;;;;;;;;;;;;;;;;;;4935046;29;20017;-88
2022/12/04 17:15:05;;;;;;;;;;;;;;;;;;4934653;29;19927;-88
2022/12/04 17:17:31;;;;;;;;;;;;;;;;;;4934769;29;20022;-88
2022/12/04 17:19:56;;;;;;;;;;;;;;;;;;4934809;29;19927;-89
2022/12/04 17:22:25;;;;;;;;;;;;;;;;;;4935126;29;20383;-88